Waynedale, Indiana
Current Conditions -  °F | °C
As of 12:54 PM on Saturday 25 Oct 2014 (Local Time) from KFWA Reporting Station
Few Clouds Few Clouds  
Wind Chill: 68°   Ceiling: Unl
Heat Index: 68°   Visibility: 10mi
Dew Point: 54°   Wind: 15mph
Humidity: 61%   Direction: 270°W
Pressure: 29.91"   Gusts: NA
Location:  40.9649°N, 85.1332°W
Report Text: KFWA 251654Z 27013KT 10SM FEW300 20/12 A2991 RMK AO2 SLP128 T02000122
Loading
Personal Weather Stations






























Interactive Weather Map
Tropical Storm Tracking
New forecast layout! Learn more

10-Day Weather Forecast

Advertisements
Track Severe Weather on mobile